Time;durP1;ratioP1;P1;durP2;ratioP2;P2;SDS_P1;SDS_P2;PMS_P1;PMS_P2;Temp;Humidity;BMP_temperature;BMP_pressure;BME280_temperature;BME280_humidity;BME280_pressure;Samples;Min_cycle;Max_cycle;Signal;HPM_P1;HPM_P2
2022/01/17 00:00:43;;;;;;;36.77;26.03;;;12.60;92.70;;;;;;5166217;28;20156;-30
2022/01/17 00:03:18;;;;;;;30.90;23.87;;;12.60;92.70;;;;;;5149475;28;20069;-29
2022/01/17 00:05:49;;;;;;;35.60;24.60;;;12.60;92.80;;;;;;5166185;28;20047;-31
2022/01/17 00:08:20;;;;;;;31.93;23.07;;;12.60;92.80;;;;;;5165906;28;20078;-31
2022/01/17 00:10:51;;;;;;;31.97;24.20;;;12.60;92.90;;;;;;5166067;28;20046;-29
2022/01/17 00:13:27;;;;;;;29.87;21.57;;;12.60;92.90;;;;;;5166217;28;20053;-29
2022/01/17 00:16:05;;;;;;;25.87;20.83;;;12.60;92.90;;;;;;5166147;28;20046;-30
2022/01/17 00:19:04;;;;;;;30.83;22.43;;;12.60;92.90;;;;;;5149726;28;20045;-32
2022/01/17 00:21:30;;;;;;;35.27;23.00;;;12.60;92.80;;;;;;5151948;28;20065;-30
2022/01/17 00:24:02;;;;;;;30.97;22.73;;;12.60;92.90;;;;;;5168957;28;20046;-32
2022/01/17 00:26:33;;;;;;;26.40;20.57;;;12.60;92.90;;;;;;5152221;28;20097;-30
2022/01/17 00:29:04;;;;;;;28.80;20.73;;;12.60;92.90;;;;;;5152324;28;20046;-32
2022/01/17 00:31:35;;;;;;;29.83;22.93;;;12.60;92.90;;;;;;5169532;28;20042;-31
2022/01/17 00:34:06;;;;;;;28.97;20.23;;;12.70;92.80;;;;;;5169672;28;20587;-29
2022/01/17 00:36:37;;;;;;;29.40;22.73;;;12.70;93.10;;;;;;5169508;28;20046;-32
2022/01/17 00:39:08;;;;;;;25.03;19.47;;;12.70;92.90;;;;;;5169230;28;20046;-30
2022/01/17 00:41:39;;;;;;;27.00;20.97;;;12.60;92.90;;;;;;5152040;28;20042;-29
2022/01/17 00:44:10;;;;;;;25.33;18.97;;;12.60;92.90;;;;;;5169231;28;20530;-29
2022/01/17 00:46:41;;;;;;;26.93;20.03;;;12.70;92.80;;;;;;5169454;28;20492;-32
2022/01/17 00:49:12;;;;;;;25.77;20.03;;;12.60;92.90;;;;;;5169242;28;20073;-32
2022/01/17 00:51:43;;;;;;;23.57;17.37;;;12.60;92.80;;;;;;5151779;28;20496;-30
2022/01/17 00:54:14;;;;;;;24.57;17.93;;;12.60;92.90;;;;;;5169088;28;20083;-32
2022/01/17 00:56:45;;;;;;;23.30;17.87;;;12.60;92.90;;;;;;5168999;28;20422;-32
2022/01/17 00:59:16;;;;;;;21.67;17.90;;;12.60;92.90;;;;;;5168958;28;20129;-29
2022/01/17 01:01:47;;;;;;;33.93;21.77;;;12.60;92.90;;;;;;5168933;28;20043;-30
2022/01/17 01:04:19;;;;;;;29.77;19.87;;;12.70;92.90;;;;;;5151791;28;20050;-30
2022/01/17 01:06:50;;;;;;;30.03;20.67;;;12.60;92.80;;;;;;5151285;28;20449;-31
2022/01/17 01:09:21;;;;;;;22.73;17.10;;;12.60;92.80;;;;;;5168833;28;20121;-31
2022/01/17 01:11:52;;;;;;;25.27;18.33;;;12.70;92.90;;;;;;5168641;28;20042;-31
2022/01/17 01:14:23;;;;;;;21.77;17.27;;;12.70;92.80;;;;;;5168804;28;20408;-32
2022/01/17 01:16:56;;;;;;;21.20;15.43;;;12.70;92.80;;;;;;5168306;28;20091;-31
2022/01/17 01:19:28;;;;;;;20.58;15.82;;;12.70;92.80;;;;;;5151627;28;20121;-30
2022/01/17 01:27:53;;;;;;;20.57;15.07;;;12.70;93.20;;;;;;5168523;28;20046;-30
2022/01/17 01:30:27;;;;;;;19.43;15.50;;;12.60;92.90;;;;;;5168463;28;20057;-30
2022/01/17 01:32:59;;;;;;;17.73;14.53;;;12.60;92.90;;;;;;5168375;28;20073;-31
2022/01/17 01:35:32;;;;;;;20.30;15.00;;;12.60;93.10;;;;;;5167149;28;20464;-31
2022/01/17 01:38:04;;;;;;;15.48;12.60;;;12.60;93.00;;;;;;5168047;28;20054;-30
2022/01/17 01:40:35;;;;;;;18.43;14.37;;;12.60;93.00;;;;;;5168526;28;20463;-30
2022/01/17 01:43:06;;;;;;;19.53;14.47;;;12.60;93.00;;;;;;5168019;28;20428;-30
2022/01/17 01:45:37;;;;;;;17.03;13.47;;;12.60;93.00;;;;;;5168009;28;20077;-30
2022/01/17 01:48:11;;;;;;;18.50;13.03;;;12.50;93.00;;;;;;5167967;28;20058;-30
2022/01/17 01:50:41;;;;;;;;;;;12.60;93.00;;;;;;5168752;28;20117;-30
2022/01/17 01:53:13;;;;;;;18.70;13.57;;;12.60;92.90;;;;;;5167914;28;19929;-30
2022/01/17 01:55:46;;;;;;;19.57;13.60;;;12.60;92.90;;;;;;5168033;28;20042;-30
2022/01/17 01:58:17;;;;;;;18.02;13.52;;;12.60;92.80;;;;;;5167534;28;20448;-30
2022/01/17 02:00:48;;;;;;;20.40;13.93;;;12.60;92.90;;;;;;5167710;28;20069;-31
2022/01/17 02:03:19;;;;;;;17.83;13.60;;;12.60;92.90;;;;;;5168338;28;20452;-30
2022/01/17 02:05:50;;;;;;;17.53;13.17;;;12.60;92.90;;;;;;5167906;28;20046;-30
2022/01/17 02:11:12;;;;;;;19.67;14.67;;;12.40;93.10;;;;;;5153424;28;20511;-31
2022/01/17 02:13:43;;;;;;;17.13;12.73;;;12.40;93.10;;;;;;5167790;28;20054;-30
2022/01/17 02:16:16;;;;;;;20.13;14.60;;;12.50;93.00;;;;;;5167513;28;20053;-30
2022/01/17 02:18:48;;;;;;;17.50;13.23;;;12.50;92.90;;;;;;5167594;28;20077;-30
2022/01/17 02:21:32;;;;;;;16.50;12.13;;;12.50;92.90;;;;;;5167444;28;20077;-30
2022/01/17 02:24:03;;;;;;;19.05;11.68;;;12.60;92.90;;;;;;5167699;28;20038;-31
2022/01/17 02:26:34;;;;;;;17.00;12.40;;;12.60;92.80;;;;;;5167519;28;20053;-30
2022/01/17 02:29:06;;;;;;;15.00;11.60;;;12.60;92.90;;;;;;5167153;28;20117;-30
2022/01/17 02:31:37;;;;;;;15.53;11.23;;;12.50;92.80;;;;;;5150347;28;20049;-30
2022/01/17 02:34:09;;;;;;;16.70;12.00;;;12.50;92.80;;;;;;5166798;28;20086;-30
2022/01/17 02:36:40;;;;;;;14.20;11.13;;;12.50;92.90;;;;;;5149632;28;20385;-31
2022/01/17 02:39:12;;;;;;;16.83;11.93;;;12.50;92.90;;;;;;5166982;28;20042;-31
2022/01/17 02:41:48;;;;;;;16.48;11.68;;;12.50;92.90;;;;;;5150119;28;20062;-30
2022/01/17 02:44:21;;;;;;;14.93;10.97;;;12.50;92.80;;;;;;5166932;28;20554;-30
2022/01/17 02:46:52;;;;;;;15.57;10.10;;;12.50;92.70;;;;;;5166305;28;20050;-30
2022/01/17 02:49:23;;;;;;;14.77;9.57;;;12.40;92.70;;;;;;5167290;28;20046;-30
2022/01/17 02:51:54;;;;;;;14.63;10.20;;;12.50;92.70;;;;;;5166953;28;20053;-31
2022/01/17 02:54:25;;;;;;;16.80;11.63;;;12.50;92.70;;;;;;5166908;28;20046;-31
2022/01/17 02:56:56;;;;;;;15.57;11.07;;;12.40;92.60;;;;;;5166650;28;20480;-30
2022/01/17 02:59:27;;;;;;;18.10;13.23;;;12.50;92.60;;;;;;5167027;28;20054;-30
2022/01/17 03:01:59;;;;;;;18.27;12.57;;;12.40;92.70;;;;;;5167150;28;20050;-30
2022/01/17 03:04:32;;;;;;;21.30;13.43;;;12.40;92.70;;;;;;5166527;28;20058;-30
2022/01/17 03:07:03;;;;;;;13.38;9.52;;;12.50;92.70;;;;;;5166485;28;20065;-31
2022/01/17 03:09:44;;;;;;;16.23;10.23;;;12.50;92.70;;;;;;5166539;28;20524;-30
2022/01/17 03:12:15;;;;;;;14.60;8.70;;;12.50;92.60;;;;;;5151309;28;20411;-30
2022/01/17 03:14:46;;;;;;;12.97;8.73;;;12.50;92.60;;;;;;5166630;28;20042;-30
2022/01/17 03:17:17;;;;;;;12.97;8.60;;;12.50;92.60;;;;;;5148898;28;20054;-31
2022/01/17 03:19:48;;;;;;;12.27;8.00;;;12.50;92.60;;;;;;5166325;28;20385;-31
2022/01/17 03:22:19;;;;;;;10.17;8.07;;;12.60;92.50;;;;;;5166546;28;20097;-30
2022/01/17 03:24:50;;;;;;;10.80;7.80;;;12.50;92.50;;;;;;5166812;28;20042;-31
2022/01/17 03:27:21;;;;;;;10.77;7.63;;;12.50;92.60;;;;;;5149309;28;20065;-30
2022/01/17 03:29:52;;;;;;;15.00;8.23;;;12.50;92.60;;;;;;5166417;28;20100;-31
2022/01/17 03:32:22;;;;;;;10.93;6.93;;;12.50;92.50;;;;;;5166400;28;20477;-31
2022/01/17 03:34:55;;;;;;;10.93;7.93;;;12.50;92.50;;;;;;5166244;28;20042;-30
2022/01/17 03:37:26;;;;;;;10.93;7.33;;;12.50;92.50;;;;;;5166482;28;20050;-30
2022/01/17 03:39:58;;;;;;;13.27;8.00;;;12.50;92.60;;;;;;5166357;28;20124;-30
2022/01/17 03:42:28;;;;;;;14.30;7.13;;;12.40;92.60;;;;;;5166382;28;20050;-30
2022/01/17 03:45:03;;;;;;;11.27;6.73;;;12.40;92.60;;;;;;5149212;28;20054;-30
2022/01/17 03:47:38;;;;;;;12.43;6.97;;;12.40;92.50;;;;;;5166047;28;20128;-30
2022/01/17 03:50:11;;;;;;;10.20;5.37;;;12.40;92.50;;;;;;5149646;28;20137;-30
2022/01/17 03:52:42;;;;;;;;;;;12.40;92.40;;;;;;5166927;28;20104;-30
2022/01/17 03:55:15;;;;;;;10.37;5.17;;;12.40;92.30;;;;;;5166199;28;19922;-30
2022/01/17 03:57:46;;;;;;;8.98;5.40;;;12.50;92.20;;;;;;5149884;28;20069;-30
2022/01/17 04:00:27;;;;;;;8.77;4.80;;;12.50;92.20;;;;;;5152807;28;20480;-31
2022/01/17 04:02:58;;;;;;;9.23;4.20;;;12.50;92.00;;;;;;5169845;28;20046;-30
2022/01/17 04:05:29;;;;;;;9.10;3.87;;;12.50;92.00;;;;;;5152827;28;20065;-30
2022/01/17 04:08:00;;;;;;;7.60;4.03;;;12.50;91.90;;;;;;5170323;28;20047;-30
2022/01/17 04:10:32;;;;;;;7.73;3.47;;;12.50;91.80;;;;;;5169965;28;20038;-31
2022/01/17 04:13:04;;;;;;;5.87;2.50;;;12.50;91.80;;;;;;5170195;28;20483;-30
2022/01/17 04:15:35;;;;;;;7.93;2.50;;;12.50;91.70;;;;;;5169875;28;20459;-30
2022/01/17 04:18:07;;;;;;;6.50;2.37;;;12.40;91.70;;;;;;5169532;28;20475;-31
2022/01/17 04:20:39;;;;;;;6.13;2.53;;;12.50;91.70;;;;;;5152612;28;20169;-30
2022/01/17 04:23:11;;;;;;;7.93;2.70;;;12.40;91.70;;;;;;5152386;28;20129;-30
2022/01/17 04:25:43;;;;;;;5.80;2.20;;;12.40;91.80;;;;;;5169573;28;20043;-30
2022/01/17 04:28:14;;;;;;;9.40;2.80;;;12.40;91.80;;;;;;5135458;28;20129;-30
2022/01/17 04:30:46;;;;;;;6.57;2.20;;;12.40;91.70;;;;;;5169255;28;20049;-30
2022/01/17 04:33:17;;;;;;;8.37;2.83;;;12.50;91.70;;;;;;5169637;28;20047;-31
2022/01/17 04:35:48;;;;;;;8.47;3.10;;;12.50;91.70;;;;;;5169510;28;20047;-30
2022/01/17 04:38:19;;;;;;;6.80;2.43;;;12.50;91.80;;;;;;5169586;28;20061;-30
2022/01/17 04:41:00;;;;;;;8.83;2.70;;;12.50;91.90;;;;;;5169288;28;20129;-31
2022/01/17 04:46:10;;;;;;;6.53;2.40;;;12.40;91.90;;;;;;5153554;28;20534;-31
2022/01/17 04:48:41;;;;;;;;;;;12.40;91.90;;;;;;5169786;28;20042;-31
2022/01/17 04:51:12;;;;;;;9.07;3.07;;;12.50;91.90;;;;;;5169107;28;19944;-31
2022/01/17 04:53:55;;;;;;;6.43;2.70;;;12.40;91.90;;;;;;5168891;28;20043;-30
2022/01/17 04:56:26;;;;;;;8.00;2.80;;;12.50;92.00;;;;;;5154026;28;20038;-30
2022/01/17 04:58:57;;;;;;;6.00;2.40;;;12.40;92.10;;;;;;5168854;28;20100;-29
2022/01/17 05:01:29;;;;;;;7.97;3.37;;;12.30;92.30;;;;;;5168938;28;20126;-29
2022/01/17 05:03:59;;;;;;;10.03;4.20;;;12.40;92.50;;;;;;5168884;28;20454;-30
2022/01/17 05:06:31;;;;;;;11.30;3.93;;;12.40;92.90;;;;;;5169076;28;20093;-30
2022/01/17 05:09:03;;;;;;;7.97;3.47;;;12.50;92.70;;;;;;5168805;28;20419;-32
2022/01/17 05:11:34;;;;;;;6.03;2.30;;;12.60;92.70;;;;;;5168784;28;20042;-29
2022/01/17 05:14:05;;;;;;;8.47;3.23;;;12.60;92.60;;;;;;5169243;28;20057;-31
2022/01/17 05:16:44;;;;;;;9.00;4.20;;;12.50;92.80;;;;;;5168471;28;20054;-30
2022/01/17 05:22:06;;;;;;;6.83;2.70;;;12.50;93.10;;;;;;5093347;29;20051;-31
2022/01/17 05:24:37;;;;;;;8.87;3.50;;;12.60;93.10;;;;;;5106577;29;20390;-32
2022/01/17 05:27:08;;;;;;;6.07;2.27;;;12.70;93.00;;;;;;5106563;29;20464;-32
2022/01/17 05:29:39;;;;;;;9.73;4.20;;;12.80;93.10;;;;;;5106592;29;20139;-31
2022/01/17 05:32:10;;;;;;;11.00;3.87;;;13.00;92.60;;;;;;5106644;29;20509;-30
2022/01/17 05:34:41;;;;;;;14.10;4.60;;;13.10;92.40;;;;;;5106186;29;20071;-31
2022/01/17 05:37:15;;;;;;;7.83;3.43;;;13.10;92.80;;;;;;5106207;29;20489;-31
2022/01/17 05:39:46;;;;;;;10.90;4.57;;;13.00;92.80;;;;;;5106721;29;20147;-30
2022/01/17 05:42:18;;;;;;;14.30;8.73;;;13.00;92.90;;;;;;5106015;29;20051;-30
2022/01/17 05:44:49;;;;;;;7.30;3.50;;;13.00;92.80;;;;;;5105752;29;20489;-29
2022/01/17 05:47:20;;;;;;;7.53;3.03;;;13.10;92.70;;;;;;5106535;29;20063;-31
2022/01/17 05:49:51;;;;;;;7.70;3.80;;;13.20;92.80;;;;;;5105975;29;20048;-30
2022/01/17 05:52:22;;;;;;;;;;;13.30;92.60;;;;;;5106323;29;20146;-30
2022/01/17 05:54:53;;;;;;;7.83;3.73;;;13.40;92.50;;;;;;5105714;29;20013;-29
2022/01/17 05:57:25;;;;;;;10.43;3.33;;;13.50;92.40;;;;;;5105764;29;20079;-31
2022/01/17 05:59:56;;;;;;;7.30;3.47;;;13.60;92.20;;;;;;5121969;29;20055;-29
2022/01/17 06:02:27;;;;;;;9.13;4.00;;;13.70;92.20;;;;;;5125451;28;20059;-31
2022/01/17 06:04:58;;;;;;;7.97;3.37;;;13.80;92.40;;;;;;5125379;28;20210;-31
2022/01/17 06:07:29;;;;;;;6.37;2.50;;;13.70;92.60;;;;;;5125116;29;20091;-30
2022/01/17 06:10:00;;;;;;;6.03;2.63;;;13.60;92.50;;;;;;5109162;29;20071;-30
2022/01/17 06:12:31;;;;;;;7.13;3.20;;;13.50;92.60;;;;;;5125042;28;20078;-30
2022/01/17 06:15:03;;;;;;;5.97;2.57;;;13.50;93.40;;;;;;5110203;28;20477;-29
2022/01/17 06:17:34;;;;;;;9.03;4.00;;;13.50;92.80;;;;;;5103095;29;20111;-32
2022/01/17 06:20:05;;;;;;;12.30;5.63;;;13.50;93.20;;;;;;5086705;29;20051;-30
2022/01/17 06:22:36;;;;;;;13.53;5.63;;;13.50;92.80;;;;;;5102678;29;20094;-32
2022/01/17 06:25:08;;;;;;;8.07;3.60;;;13.50;93.10;;;;;;5086977;29;20079;-29
2022/01/17 06:27:39;;;;;;;10.47;5.40;;;13.50;92.80;;;;;;5102756;29;20048;-31
2022/01/17 06:30:11;;;;;;;13.00;5.73;;;13.40;93.00;;;;;;5071151;29;20123;-29
2022/01/17 06:32:44;;;;;;;13.10;7.28;;;13.50;93.20;;;;;;5087306;29;20482;-28
2022/01/17 06:35:15;;;;;;;11.13;3.70;;;13.40;92.80;;;;;;5087047;29;20058;-32
2022/01/17 06:37:46;;;;;;;9.10;2.50;;;13.30;92.90;;;;;;5100909;28;20536;-31
2022/01/17 06:40:17;;;;;;;38.93;15.20;;;13.20;93.10;;;;;;5144904;28;20122;-32
2022/01/17 06:42:50;;;;;;;26.23;11.60;;;13.20;93.10;;;;;;5144784;28;20047;-31
2022/01/17 06:45:23;;;;;;;21.83;9.75;;;13.20;93.10;;;;;;5144689;28;20042;-32
2022/01/17 06:47:56;;;;;;;27.83;12.13;;;13.20;93.70;;;;;;5111587;28;20137;-31
2022/01/17 06:50:27;;;;;;;11.67;5.50;;;13.10;93.20;;;;;;5144409;28;20142;-30
2022/01/17 06:52:58;;;;;;;28.27;11.77;;;13.10;93.30;;;;;;5144679;28;20093;-30
2022/01/17 06:55:29;;;;;;;26.60;12.13;;;13.20;93.10;;;;;;5127412;28;20054;-30
2022/01/17 06:58:00;;;;;;;15.97;7.90;;;13.20;93.40;;;;;;5127230;28;20437;-31
2022/01/17 07:00:31;;;;;;;13.23;7.47;;;13.30;93.10;;;;;;5144648;28;20042;-32
2022/01/17 07:03:02;;;;;;;10.37;6.23;;;13.30;93.20;;;;;;5144195;28;20144;-31
2022/01/17 07:05:33;;;;;;;8.43;4.13;;;13.30;93.20;;;;;;5111619;28;20042;-29
2022/01/17 07:08:04;;;;;;;9.73;5.30;;;13.30;93.50;;;;;;5144200;28;20516;-32
2022/01/17 07:10:35;;;;;;;7.50;3.83;;;13.30;93.20;;;;;;5144371;28;20077;-31
2022/01/17 07:13:06;;;;;;;8.33;4.43;;;13.30;93.40;;;;;;5144053;28;20050;-32
2022/01/17 07:15:37;;;;;;;6.07;2.77;;;13.20;93.50;;;;;;5144480;28;20051;-31
2022/01/17 07:18:11;;;;;;;3.97;2.20;;;13.20;93.50;;;;;;5126981;28;20051;-29
2022/01/17 07:20:42;;;;;;;6.03;2.83;;;13.20;93.80;;;;;;5144325;28;20046;-32
2022/01/17 07:23:14;;;;;;;5.73;3.30;;;13.20;93.80;;;;;;5144171;28;20046;-32
2022/01/17 07:25:44;;;;;;;6.37;3.20;;;13.20;93.70;;;;;;5126743;28;20050;-29
2022/01/17 07:28:16;;;;;;;9.73;4.63;;;13.10;93.90;;;;;;5144186;28;20057;-30
2022/01/17 07:30:46;;;;;;;7.50;3.10;;;13.10;94.00;;;;;;5144359;28;20050;-30
2022/01/17 07:33:20;;;;;;;5.13;2.37;;;13.10;94.10;;;;;;5147091;28;20050;-29
2022/01/17 07:35:51;;;;;;;5.32;2.65;;;13.10;93.90;;;;;;5148092;28;20050;-29
2022/01/17 07:38:22;;;;;;;10.60;4.53;;;13.10;93.90;;;;;;5147766;28;20070;-31
2022/01/17 07:40:53;;;;;;;6.47;2.73;;;13.10;93.90;;;;;;5147953;28;20085;-31
2022/01/17 07:43:25;;;;;;;9.43;4.77;;;13.20;93.90;;;;;;5130577;28;20102;-31
2022/01/17 07:46:18;;;;;;;7.03;4.67;;;13.20;94.00;;;;;;5147970;28;20448;-30
2022/01/17 07:51:27;;;;;;;5.50;2.30;;;13.10;94.20;;;;;;5148072;28;20042;-30
2022/01/17 07:53:58;;;;;;;4.87;2.43;;;13.10;94.10;;;;;;5147734;28;20070;-31
2022/01/17 07:56:30;;;;;;;4.47;2.13;;;13.20;94.10;;;;;;5130566;28;20055;-30
2022/01/17 07:59:01;;;;;;;5.63;2.70;;;13.20;94.00;;;;;;5146344;28;20504;-31
2022/01/17 08:01:32;;;;;;;7.80;4.23;;;13.20;94.00;;;;;;5097654;28;20087;-31
2022/01/17 08:04:04;;;;;;;6.30;2.70;;;13.20;94.20;;;;;;5130521;28;20129;-30
2022/01/17 08:06:38;;;;;;;6.23;3.00;;;13.10;94.80;;;;;;5147242;28;20150;-29
2022/01/17 08:09:11;;;;;;;13.53;8.03;;;13.00;94.70;;;;;;5147675;28;20050;-29
2022/01/17 08:11:42;;;;;;;3.03;1.08;;;12.80;95.10;;;;;;5147375;28;20507;-30
2022/01/17 08:14:13;;;;;;;1.03;0.40;;;12.60;94.80;;;;;;5147642;28;20114;-30
2022/01/17 08:16:44;;;;;;;1.53;0.50;;;12.40;91.30;;;;;;5147400;28;20065;-30
2022/01/17 08:19:16;;;;;;;0.70;0.40;;;12.30;91.10;;;;;;5147380;28;20050;-30
2022/01/17 08:21:47;;;;;;;3.23;2.00;;;12.10;90.80;;;;;;5129812;28;20484;-29
2022/01/17 08:24:21;;;;;;;1.80;0.83;;;12.00;90.80;;;;;;5147246;28;20121;-29
2022/01/17 08:26:52;;;;;;;5.20;4.47;;;11.90;90.50;;;;;;5147200;28;20547;-30
2022/01/17 08:29:25;;;;;;;24.03;15.33;;;11.90;90.30;;;;;;5147192;28;20085;-29
2022/01/17 08:31:58;;;;;;;29.83;15.55;;;11.90;90.20;;;;;;5146992;28;20538;-29
2022/01/17 08:34:29;;;;;;;39.38;20.33;;;12.00;90.20;;;;;;5147057;28;20043;-31
2022/01/17 08:37:00;;;;;;;32.03;14.70;;;12.00;90.10;;;;;;5146910;28;20053;-29
2022/01/17 08:39:31;;;;;;;34.20;18.20;;;12.10;90.20;;;;;;5147297;28;20047;-29
2022/01/17 08:42:10;;;;;;;49.60;33.70;;;12.20;89.80;;;;;;5146781;28;20051;-30
2022/01/17 08:44:49;;;;;;;10.10;7.93;;;12.20;89.90;;;;;;5146156;28;20097;-30
2022/01/17 08:47:20;;;;;;;5.30;3.70;;;12.20;89.20;;;;;;5130318;28;20039;-30
2022/01/17 08:49:51;;;;;;;6.00;3.53;;;12.30;89.10;;;;;;5129325;28;20105;-30
2022/01/17 08:52:22;;;;;;;5.17;2.97;;;12.40;89.20;;;;;;5126284;28;20039;-30
2022/01/17 08:54:54;;;;;;;4.37;2.57;;;12.30;88.70;;;;;;5146473;28;20055;-29
2022/01/17 08:57:38;;;;;;;4.17;1.90;;;12.40;88.30;;;;;;5146333;28;20054;-29
2022/01/17 09:00:25;;;;;;;6.20;4.00;;;12.50;88.30;;;;;;5132349;28;20555;-31
2022/01/17 09:02:56;;;;;;;8.20;3.63;;;12.50;87.70;;;;;;5115470;28;20055;-32
2022/01/17 09:05:28;;;;;;;8.77;5.03;;;12.60;87.30;;;;;;5148554;28;20047;-31
2022/01/17 09:08:00;;;;;;;8.17;4.20;;;12.70;87.20;;;;;;5148234;28;20082;-29
2022/01/17 09:10:31;;;;;;;6.53;3.70;;;12.60;86.80;;;;;;5131443;28;20070;-30
2022/01/17 09:13:04;;;;;;;7.97;4.20;;;12.60;86.80;;;;;;5131344;28;20089;-29
2022/01/17 09:15:36;;;;;;;8.87;4.20;;;12.60;86.80;;;;;;5131694;28;20080;-29
2022/01/17 09:18:14;;;;;;;9.70;4.53;;;12.60;86.30;;;;;;5148275;28;20490;-30
2022/01/17 09:20:48;;;;;;;10.10;5.97;;;12.60;86.40;;;;;;5148880;28;20392;-32
2022/01/17 09:23:19;;;;;;;7.30;4.57;;;12.60;86.40;;;;;;5148358;28;20042;-31
2022/01/17 09:25:51;;;;;;;7.70;4.27;;;12.60;86.30;;;;;;5131052;28;20050;-29
2022/01/17 09:28:23;;;;;;;18.53;13.27;;;12.50;86.20;;;;;;5147914;28;20058;-29
2022/01/17 09:30:54;;;;;;;13.87;10.47;;;12.50;86.80;;;;;;5131325;28;20070;-29
2022/01/17 09:33:25;;;;;;;19.53;14.83;;;12.50;86.70;;;;;;5148189;28;20149;-30
2022/01/17 09:35:58;;;;;;;9.67;5.70;;;12.50;86.60;;;;;;5147878;28;20058;-30
2022/01/17 09:38:28;;;;;;;7.93;4.50;;;12.50;86.30;;;;;;5131103;28;20066;-29
2022/01/17 09:41:00;;;;;;;6.83;3.70;;;12.60;86.30;;;;;;5148042;28;20047;-29
2022/01/17 09:43:32;;;;;;;9.23;6.07;;;12.60;86.30;;;;;;5114074;28;20050;-32
2022/01/17 09:46:03;;;;;;;11.00;6.37;;;12.50;87.10;;;;;;5130538;28;20054;-29
2022/01/17 09:49:01;;;;;;;15.83;10.00;;;12.50;85.90;;;;;;5147980;28;20051;-32
2022/01/17 09:55:24;;;;;;;18.60;10.63;;;12.40;85.50;;;;;;5105589;29;20409;-28
2022/01/17 09:58:04;;;;;;;10.63;6.47;;;12.40;85.80;;;;;;5089979;29;20056;-30
2022/01/17 10:00:41;;;;;;;10.47;5.57;;;12.40;85.10;;;;;;5090768;29;20067;-31
2022/01/17 10:03:23;;;;;;;11.23;5.70;;;12.40;85.40;;;;;;5106066;29;20063;-31
2022/01/17 10:05:57;;;;;;;10.10;6.17;;;12.40;84.60;;;;;;5091306;29;20142;-30
2022/01/17 10:08:52;;;;;;;8.27;4.67;;;12.40;84.50;;;;;;5088349;29;20191;-30
2022/01/17 10:11:32;;;;;;;20.83;15.13;;;12.40;83.60;;;;;;5070735;29;20478;-30
2022/01/17 10:14:09;;;;;;;22.50;14.67;;;12.70;83.80;;;;;;5083310;29;20422;-30
2022/01/17 10:16:49;;;;;;;11.17;5.17;;;12.70;83.60;;;;;;5044293;29;20071;-29
2022/01/17 10:19:26;;;;;;;5.27;2.83;;;12.70;83.20;;;;;;5044637;29;20060;-30
2022/01/17 10:22:22;;;;;;;7.27;5.17;;;12.70;83.00;;;;;;5044556;29;20053;-30
2022/01/17 10:28:46;;;;;;;5.90;3.58;;;12.50;83.30;;;;;;5044573;29;20056;-29
2022/01/17 10:37:30;;;;;;;7.20;3.83;;;12.50;83.60;;;;;;5012235;29;20049;-31
2022/01/17 10:40:17;;;;;;;8.03;4.00;;;12.50;83.70;;;;;;5025028;29;20088;-29
2022/01/17 10:43:05;;;;;;;7.00;3.47;;;12.40;84.20;;;;;;5025079;29;20049;-30
2022/01/17 10:45:46;;;;;;;6.60;4.03;;;12.30;83.80;;;;;;5024751;29;20057;-30
2022/01/17 10:48:45;;;;;;;7.73;4.07;;;12.30;84.60;;;;;;5010030;29;20065;-30
2022/01/17 10:51:34;;;;;;;6.07;3.03;;;12.20;84.80;;;;;;5024945;29;20608;-31
2022/01/17 10:54:15;;;;;;;7.50;4.53;;;12.30;84.50;;;;;;5024762;29;20063;-30
2022/01/17 10:56:50;;;;;;;6.87;3.97;;;12.30;84.30;;;;;;5009532;29;20887;-30
2022/01/17 10:59:29;;;;;;;8.17;3.73;;;12.40;84.90;;;;;;5009271;29;20057;-31
2022/01/17 11:02:01;;;;;;;7.13;3.97;;;12.30;84.50;;;;;;5024649;29;20085;-31
2022/01/17 11:04:38;;;;;;;10.00;5.47;;;12.30;84.20;;;;;;5024432;29;20148;-30
2022/01/17 11:07:10;;;;;;;9.77;5.60;;;12.40;84.30;;;;;;5019365;29;20057;-30
2022/01/17 11:09:43;;;;;;;10.20;6.72;;;12.30;84.70;;;;;;5040075;29;20054;-30
2022/01/17 11:12:15;;;;;;;5.03;2.87;;;12.30;84.20;;;;;;5026862;29;20094;-29
2022/01/17 11:14:46;;;;;;;7.40;4.15;;;12.40;84.10;;;;;;5066875;29;20107;-29
2022/01/17 11:17:21;;;;;;;7.63;5.27;;;12.30;83.90;;;;;;5066623;29;20056;-31
2022/01/17 11:20:06;;;;;;;9.13;6.17;;;12.40;83.90;;;;;;5082724;29;20048;-29
2022/01/17 11:22:39;;;;;;;6.10;4.00;;;12.30;84.20;;;;;;5100648;29;20442;-30
2022/01/17 11:25:19;;;;;;;6.72;4.25;;;12.20;84.00;;;;;;5104500;29;20042;-29
2022/01/17 11:27:50;;;;;;;5.77;3.57;;;12.10;83.40;;;;;;5092122;29;20048;-32
2022/01/17 11:30:21;;;;;;;6.40;3.23;;;12.10;83.40;;;;;;5103110;29;20514;-30
2022/01/17 11:32:54;;;;;;;6.93;3.50;;;12.00;83.30;;;;;;5103399;29;20044;-30
2022/01/17 11:35:26;;;;;;;7.65;4.22;;;11.90;83.50;;;;;;5103023;29;20549;-31
2022/01/17 11:37:58;;;;;;;12.33;9.97;;;12.00;83.90;;;;;;5104200;29;20425;-31
2022/01/17 11:40:34;;;;;;;5.90;3.63;;;12.10;83.80;;;;;;5103494;29;20063;-30
2022/01/17 11:50:43;;;;;;;5.40;2.60;;;12.00;82.30;;;;;;5097046;29;20066;-31
2022/01/17 11:53:14;;;;;;;6.23;3.00;;;12.00;81.80;;;;;;5090020;29;20165;-31
2022/01/17 11:55:48;;;;;;;7.73;4.37;;;12.00;82.10;;;;;;5104233;29;20107;-31
2022/01/17 11:58:27;;;;;;;8.20;4.40;;;12.00;82.10;;;;;;5103999;29;20051;-29
2022/01/17 12:00:58;;;;;;;14.33;8.33;;;12.00;81.40;;;;;;5103837;29;20059;-30
2022/01/17 12:03:30;;;;;;;16.53;9.57;;;11.90;81.80;;;;;;5104212;29;20136;-32
2022/01/17 12:06:03;;;;;;;14.70;7.90;;;11.90;81.80;;;;;;5104361;29;20048;-30
2022/01/17 12:08:35;;;;;;;18.38;12.60;;;12.00;82.40;;;;;;5105521;29;20059;-31
2022/01/17 12:11:07;;;;;;;10.50;5.27;;;12.00;82.90;;;;;;5122640;29;20544;-30
2022/01/17 12:13:42;;;;;;;11.50;6.25;;;12.10;82.10;;;;;;5122797;28;20043;-30
2022/01/17 12:16:30;;;;;;;8.03;4.67;;;12.00;81.20;;;;;;5122898;29;20054;-32
2022/01/17 12:19:02;;;;;;;8.10;4.10;;;12.10;80.80;;;;;;5126531;28;20046;-33
2022/01/17 12:21:41;;;;;;;6.88;3.60;;;12.20;81.30;;;;;;5129507;28;20043;-32
2022/01/17 12:24:14;;;;;;;6.27;3.13;;;12.00;80.50;;;;;;5130109;28;20151;-32
2022/01/17 12:30:41;;;;;;;7.87;3.87;;;12.00;80.40;;;;;;5129056;29;20070;-31
2022/01/17 12:33:27;;;;;;;11.00;3.87;;;12.00;79.50;;;;;;5129466;29;20113;-32
2022/01/17 12:47:15;;;;;;;11.30;6.30;;;11.70;78.10;;;;;;5238894;23;20055;-32
2022/01/17 12:49:46;;;;;;;14.93;7.73;;;11.70;78.00;;;;;;5128960;29;20050;-31
2022/01/17 12:52:17;;;;;;;11.37;6.10;;;11.70;78.30;;;;;;5111617;29;20407;-30
2022/01/17 12:54:49;;;;;;;8.07;3.97;;;11.70;78.30;;;;;;5111629;29;20043;-30
2022/01/17 12:57:23;;;;;;;6.20;2.47;;;11.60;78.20;;;;;;5129005;29;20074;-29
2022/01/17 12:59:55;;;;;;;8.37;3.50;;;11.60;78.20;;;;;;5111858;29;20484;-32
2022/01/17 13:02:25;;;;;;;15.00;9.60;;;11.60;78.50;;;;;;5129082;29;20058;-32
2022/01/17 13:04:58;;;;;;;9.80;7.47;;;11.60;77.80;;;;;;5128167;29;20043;-30
2022/01/17 13:07:29;;;;;;;21.47;9.87;;;11.70;78.60;;;;;;5111890;29;20098;-29
2022/01/17 13:10:00;;;;;;;9.53;3.80;;;11.70;78.80;;;;;;5111366;29;20123;-32
2022/01/17 13:12:32;;;;;;;4.50;2.57;;;11.70;78.20;;;;;;5128672;29;20058;-30
2022/01/17 13:15:05;;;;;;;9.13;6.00;;;11.60;78.20;;;;;;5128404;29;20058;-32
2022/01/17 13:17:55;;;;;;;18.17;7.37;;;11.60;78.10;;;;;;5128492;29;20045;-32
2022/01/17 13:20:28;;;;;;;6.70;5.40;;;11.70;78.10;;;;;;5111200;29;20039;-31
2022/01/17 13:23:06;;;;;;;5.50;3.23;;;11.70;77.80;;;;;;5112292;29;20416;-31
2022/01/17 13:25:38;;;;;;;3.87;2.97;;;11.40;76.30;;;;;;5128025;29;20443;-32
2022/01/17 13:28:09;;;;;;;6.03;4.43;;;11.30;77.10;;;;;;5111064;29;20055;-31
2022/01/17 13:30:40;;;;;;;6.33;4.50;;;11.40;77.40;;;;;;5118315;28;20043;-30
2022/01/17 13:33:11;;;;;;;5.77;3.60;;;11.40;76.90;;;;;;5116215;28;20035;-30
2022/01/17 13:35:43;;;;;;;7.00;2.80;;;11.30;76.40;;;;;;5102521;29;20103;-31
2022/01/17 13:38:20;;;;;;;7.07;3.50;;;11.30;76.50;;;;;;5117172;28;20054;-31
2022/01/17 13:41:01;;;;;;;8.00;3.90;;;11.40;76.30;;;;;;5107844;28;20047;-30
2022/01/17 13:43:32;;;;;;;7.30;3.10;;;11.60;76.00;;;;;;5100864;29;20412;-30
2022/01/17 13:46:03;;;;;;;8.50;2.93;;;11.70;75.90;;;;;;5113085;28;20047;-31
2022/01/17 13:48:35;;;;;;;9.73;5.27;;;11.80;75.50;;;;;;5098876;29;20051;-32
2022/01/17 13:51:06;;;;;;;49.33;21.73;;;11.70;74.60;;;;;;5100170;29;20043;-30
2022/01/17 13:53:37;;;;;;;59.97;27.40;;;11.70;75.50;;;;;;5096613;29;20400;-32
2022/01/17 13:56:08;;;;;;;24.10;12.33;;;11.70;75.60;;;;;;5116500;29;20047;-30
2022/01/17 13:58:41;;;;;;;63.77;29.73;;;11.70;75.60;;;;;;5113627;29;20054;-30
2022/01/17 14:01:13;;;;;;;59.90;31.07;;;11.80;75.50;;;;;;5110920;29;20433;-32
2022/01/17 14:03:45;;;;;;;28.37;15.90;;;11.90;75.20;;;;;;5115402;29;20095;-32